Ernest Campbell — WDB3005 — position and weather

sailwx.info

Track history (hours):
 
Tides and Currents Weather Stations Pressure Air Temp Water Temp Dewpoint Dewpoint Depression Visibility Wind Speed Wind Dir Waves Ship Positions

Ernest Campbell

Owner: Campbell Leasing Company LLC, Wrangell, AK. More information available from US FCC via Universal Licensing System and Coast Guard Vessel Documentation Center.

Last reported at 2014-Nov-24 17:07 UTC. Time now 2014-Nov-25 01:58 UTC.
Position N 48°52' W 122°45'.

Length 33 m; draft 4.6 m.

Type: Tow > 200 m length. MMSI: 366882320.

Date/timePositionNaut miles runAvg speedWind from/ knotsBaromVisibWave heightAir tempDewpointWater temp
2014-Nov-24 17:07N 48°52' W 122°45'1 0.5
2014-Nov-24 15:22N 48°51' W 122°47'0 0.1
2014-Nov-24 14:33N 48°51' W 122°47'3 3.2
2014-Nov-24 13:33N 48°48' W 122°46'6 6.5
2014-Nov-24 12:34N 48°42' W 122°43'6 6.5
2014-Nov-24 11:34N 48°37' W 122°37'6 5.6
2014-Nov-24 10:34N 48°31' W 122°35'1 0.6
2014-Nov-24 08:33N 48°31' W 122°37'0 0.0
2014-Nov-24 07:33N 48°31' W 122°37'0 0.0
2014-Nov-24 06:33N 48°31' W 122°37'0 0.0
2014-Nov-24 05:32N 48°31' W 122°37'0 0.0
2014-Nov-24 04:32N 48°31' W 122°37'0 0.0
2014-Nov-24 03:32N 48°31' W 122°37'0 0.0
2014-Nov-24 02:26N 48°31' W 122°37'0 0.0
2014-Nov-24 01:32N 48°31' W 122°37'0 0.0
2014-Nov-24 00:32N 48°31' W 122°37'0 0.0
2014-Nov-23 23:32N 48°31' W 122°37'0 0.0
2014-Nov-23 22:32N 48°31' W 122°37'0 0.0
2014-Nov-23 21:26N 48°31' W 122°37'0 0.0
2014-Nov-23 20:32N 48°31' W 122°37'0 0.0
2014-Nov-23 19:32N 48°31' W 122°37'0 0.0
2014-Nov-23 18:32N 48°31' W 122°37'0 0.0
2014-Nov-23 17:32N 48°31' W 122°37'0 0.0
2014-Nov-23 16:32N 48°31' W 122°37'0 0.0
2014-Nov-23 15:32N 48°31' W 122°37'0 0.0
2014-Nov-23 14:32N 48°31' W 122°37'0 0.0
2014-Nov-23 13:32N 48°31' W 122°37'0 0.0
2014-Nov-23 12:32N 48°31' W 122°37'0 0.0
2014-Nov-23 11:26N 48°31' W 122°37'0 0.0
2014-Nov-23 10:32N 48°31' W 122°37'0 0.0
2014-Nov-23 09:32N 48°31' W 122°37'0 0.0
2014-Nov-23 08:14N 48°31' W 122°37'0 0.0
2014-Nov-23 07:32N 48°31' W 122°37'0 0.0
2014-Nov-23 06:32N 48°31' W 122°37'0 0.0
2014-Nov-23 05:32N 48°31' W 122°37'0 0.0
2014-Nov-23 04:32N 48°31' W 122°37'0 0.0
2014-Nov-23 03:32N 48°31' W 122°37'0 0.0
2014-Nov-23 02:29N 48°31' W 122°37'0 0.0
2014-Nov-23 01:32N 48°31' W 122°37'0 0.0
2014-Nov-23 00:32N 48°31' W 122°37'0 0.0
2014-Nov-22 23:32N 48°31' W 122°37'0 0.0
2014-Nov-22 22:32N 48°31' W 122°37'0 0.0
2014-Nov-22 21:26N 48°31' W 122°37'0 0.0
2014-Nov-22 20:32N 48°31' W 122°37'0 0.0
2014-Nov-22 19:27N 48°31' W 122°37'0 0.0
2014-Nov-22 18:33N 48°31' W 122°37'0 0.0
2014-Nov-22 17:21N 48°31' W 122°37'0 0.0
2014-Nov-22 16:27N 48°31' W 122°37'0 0.0
2014-Nov-22 15:33N 48°31' W 122°37'0 0.0
2014-Nov-22 14:33N 48°31' W 122°37'0 0.0
2014-Nov-22 13:33N 48°31' W 122°37'0 0.0
2014-Nov-22 12:33N 48°31' W 122°37'0 0.0
2014-Nov-22 11:33N 48°31' W 122°37'0 0.0
2014-Nov-22 10:33N 48°31' W 122°37'0 0.0
2014-Nov-22 09:33N 48°31' W 122°37'0 0.0
2014-Nov-22 08:33N 48°31' W 122°37'0 0.0
2014-Nov-22 07:33N 48°31' W 122°37'0 0.0
2014-Nov-22 06:33N 48°31' W 122°37'0 0.0
2014-Nov-22 05:33N 48°31' W 122°37'0 0.0
2014-Nov-22 04:24N 48°31' W 122°37'0 0.0
2014-Nov-22 03:30N 48°31' W 122°37'0 0.2
2014-Nov-22 02:33N 48°31' W 122°37'1 1.3
2014-Nov-22 01:32N 48°31' W 122°35'0 0.0
2014-Nov-22 00:32N 48°31' W 122°35'0 0.0
2014-Nov-21 23:32N 48°31' W 122°35'0 0.0
2014-Nov-21 22:32N 48°31' W 122°35'0 0.0
2014-Nov-21 21:32N 48°31' W 122°35'0 0.0
2014-Nov-21 20:32N 48°31' W 122°35'0 0.0
2014-Nov-21 19:26N 48°31' W 122°35'0 0.0
2014-Nov-21 18:31N 48°31' W 122°35'0 0.0
2014-Nov-21 17:31N 48°31' W 122°35'0 0.0
2014-Nov-21 16:31N 48°31' W 122°35'0 0.0
2014-Nov-21 15:31N 48°31' W 122°35'0 0.0
2014-Nov-21 14:31N 48°31' W 122°35'0 0.4
2014-Nov-21 13:31N 48°31' W 122°36'1 1.5
2014-Nov-21 12:33N 48°31' W 122°38'5 5.1
2014-Nov-21 11:33N 48°29' W 122°44'6 5.3
2014-Nov-21 10:23N 48°22' W 122°44'4 4.1
2014-Nov-21 09:26N 48°19' W 122°46'4 3.7
2014-Nov-21 08:28N 48°15' W 122°47'10 3.5
2014-Nov-21 05:32N 48°07' W 122°39'6 7.5
2014-Nov-21 04:43N 48°01' W 122°36'2 7.6
2014-Nov-21 04:30N 47°59' W 122°35'2 7.4
2014-Nov-21 04:18N 47°58' W 122°34'6 8.4
2014-Nov-21 03:33N 47°53' W 122°28'0 0.0
2014-Nov-21 03:33N 47°53' W 122°28'8 8.2
2014-Nov-21 02:33N 47°45' W 122°26'0 6.9
2014-Nov-21 02:32N 47°45' W 122°26'8 7.8
2014-Nov-21 01:33N 47°37' W 122°25'0 3.4
2014-Nov-21 01:33N 47°37' W 122°25'4 3.4
2014-Nov-21 00:31N 47°36' W 122°21'0 0.0
2014-Nov-20 23:32N 47°36' W 122°21'0 0.0
2014-Nov-20 22:29N 47°36' W 122°21'0 0.0
2014-Nov-20 21:41N 47°36' W 122°21'0 0.0
2014-Nov-20 21:32N 47°36' W 122°21'0 0.0
2014-Nov-20 21:11N 47°36' W 122°21'0 0.0
2014-Nov-20 20:26N 47°36' W 122°21'0 0.0
2014-Nov-20 19:32N 47°36' W 122°21'0 0.0
2014-Nov-20 18:32N 47°36' W 122°21'0 0.2
2014-Nov-20 18:11N 47°36' W 122°21'0 0.1
2014-Nov-20 17:31N 47°36' W 122°21'0 0.4
2014-Nov-20 17:25N 47°36' W 122°21'0 0.1
2014-Nov-20 16:33N 47°35' W 122°21'0 0.2
2014-Nov-20 16:05N 47°35' W 122°21'1 1.6
2014-Nov-20 15:31N 47°34' W 122°21'0 0.0
2014-Nov-20 15:25N 47°34' W 122°21'0 0.0
2014-Nov-20 14:31N 47°34' W 122°21'0 0.0
2014-Nov-20 14:25N 47°34' W 122°21'0 0.0
2014-Nov-20 13:31N 47°34' W 122°21'0 0.1
2014-Nov-20 13:25N 47°34' W 122°21'0 0.0
2014-Nov-20 12:31N 47°34' W 122°21'0 0.0
2014-Nov-20 11:31N 47°34' W 122°21'0 0.0
2014-Nov-20 10:34N 47°34' W 122°21'0 0.1
2014-Nov-20 10:31N 47°34' W 122°21'0 0.0
2014-Nov-20 10:19N 47°34' W 122°21'0 0.0
2014-Nov-20 09:31N 47°34' W 122°21'0 0.0
2014-Nov-20 09:19N 47°34' W 122°21'0 0.0
2014-Nov-20 08:31N 47°34' W 122°21'0 0.0
2014-Nov-20 08:04N 47°34' W 122°21'0 0.0
2014-Nov-20 07:49N 47°34' W 122°21'0 0.0
2014-Nov-20 07:31N 47°34' W 122°21'0 0.0
2014-Nov-20 06:31N 47°34' W 122°21'0 0.0
2014-Nov-20 06:28N 47°34' W 122°21'1 0.7
2014-Nov-20 05:34N 47°35' W 122°21'0 3.2
2014-Nov-20 05:33N 47°35' W 122°21'1 0.6
2014-Nov-20 04:33N 47°34' W 122°21'0 0.3
2014-Nov-20 04:23N 47°34' W 122°21'0 0.0
2014-Nov-20 03:32N 47°34' W 122°21'0 0.0
2014-Nov-20 03:32N 47°34' W 122°21'0 0.0
2014-Nov-20 02:32N 47°34' W 122°21'0 0.0
2014-Nov-20 01:50N 47°34' W 122°21'0 0.0
2014-Nov-20 01:14N 47°34' W 122°21'0 0.0
2014-Nov-20 00:20N 47°34' W 122°21'0 0.0
2014-Nov-19 23:32N 47°34' W 122°21'0 0.5
2014-Nov-19 22:59N 47°35' W 122°21'0 0.6
2014-Nov-19 22:33N 47°34' W 122°21'0 0.1
2014-Nov-19 22:18N 47°34' W 122°21'1 1.0
2014-Nov-19 21:34N 47°35' W 122°21'0 9.8
2014-Nov-19 21:33N 47°35' W 122°21'0 0.3
2014-Nov-19 20:33N 47°35' W 122°21'0 0.0
2014-Nov-19 19:33N 47°35' W 122°21'0 0.1
2014-Nov-19 19:22N 47°35' W 122°21'1 1.3
2014-Nov-19 18:33N 47°34' W 122°21'0 0.0
2014-Nov-19 18:27N 47°34' W 122°21'0 0.0
2014-Nov-19 17:33N 47°34' W 122°21'1 1.3
2014-Nov-19 16:51N 47°35' W 122°21'1 3.1
2014-Nov-19 16:33N 47°34' W 122°21'0 0.0
2014-Nov-19 16:30N 47°34' W 122°21'0 0.0
2014-Nov-19 15:33N 47°34' W 122°21'0 0.0
2014-Nov-19 15:30N 47°34' W 122°21'0 0.0
2014-Nov-19 14:24N 47°34' W 122°21'0 0.0
2014-Nov-19 13:54N 47°34' W 122°21'0 0.0
2014-Nov-19 13:33N 47°34' W 122°21'0 0.0
2014-Nov-19 13:24N 47°34' W 122°21'0 0.0
2014-Nov-19 12:33N 47°34' W 122°21'0 0.0
2014-Nov-19 12:24N 47°34' W 122°21'0 0.0
2014-Nov-19 11:33N 47°34' W 122°21'0 0.0
2014-Nov-19 11:24N 47°34' W 122°21'0 0.0
2014-Nov-19 10:33N 47°34' W 122°21'0 0.0
2014-Nov-19 10:24N 47°34' W 122°21'0 0.0
2014-Nov-19 09:33N 47°34' W 122°21'0 0.0
2014-Nov-19 09:24N 47°34' W 122°21'0 0.0
2014-Nov-19 08:30N 47°34' W 122°21'0 0.0
2014-Nov-19 08:18N 47°34' W 122°21'0 0.0
2014-Nov-19 07:33N 47°34' W 122°21'0 0.0
2014-Nov-19 07:33N 47°34' W 122°21'0 0.0
2014-Nov-19 06:48N 47°34' W 122°21'0 0.0
2014-Nov-19 06:33N 47°34' W 122°21'0 0.0
2014-Nov-19 05:33N 47°34' W 122°21'0 0.0
2014-Nov-19 05:33N 47°34' W 122°21'0 0.1
2014-Nov-19 04:33N 47°34' W 122°21'0 0.0
2014-Nov-19 04:33N 47°34' W 122°21'1 0.8
2014-Nov-19 03:24N 47°35' W 122°21'0 0.0
2014-Nov-19 02:27N 47°35' W 122°21'0 0.0
2014-Nov-19 01:26N 47°35' W 122°21'0 0.0
2014-Nov-19 00:26N 47°35' W 122°21'0 0.0
2014-Nov-18 23:33N 47°35' W 122°21'0 0.0
2014-Nov-18 23:32N 47°35' W 122°21'0 0.0
2014-Nov-18 22:32N 47°35' W 122°21'0 0.0
2014-Nov-18 22:32N 47°35' W 122°21'0 0.0
2014-Nov-18 21:32N 47°35' W 122°21'0 0.0
2014-Nov-18 21:32N 47°35' W 122°21'1 0.9
2014-Nov-18 20:33N 47°35' W 122°21'0 1.4
2014-Nov-18 20:27N 47°34' W 122°21'0 0.1
2014-Nov-18 19:31N 47°34' W 122°21'0 0.0
2014-Nov-18 18:41N 47°34' W 122°21'0 0.0
2014-Nov-18 18:32N 47°34' W 122°21'0 0.0
2014-Nov-18 18:16N 47°34' W 122°21'0 0.0
2014-Nov-18 17:31N 47°34' W 122°21'0 0.0
2014-Nov-18 17:16N 47°34' W 122°21'0 0.0
2014-Nov-18 16:31N 47°34' W 122°21'0 0.0
2014-Nov-18 16:31N 47°34' W 122°21'0 0.0
2014-Nov-18 15:31N 47°34' W 122°21'0 0.0
2014-Nov-18 15:25N 47°34' W 122°21'0 0.0
2014-Nov-18 14:31N 47°34' W 122°21'0 0.0
2014-Nov-18 14:25N 47°34' W 122°21'0 0.0
2014-Nov-18 13:31N 47°34' W 122°21'0 0.0
2014-Nov-18 13:10N 47°34' W 122°21'0 0.0
2014-Nov-18 12:31N 47°34' W 122°21'0 0.1
2014-Nov-18 12:25N 47°34' W 122°21'0 0.0
2014-Nov-18 11:31N 47°34' W 122°21'0 0.0
2014-Nov-18 11:25N 47°34' W 122°21'0 0.0
2014-Nov-18 10:31N 47°34' W 122°21'0 0.1
2014-Nov-18 10:25N 47°34' W 122°21'0 0.0
2014-Nov-18 09:31N 47°34' W 122°21'0 0.1
2014-Nov-18 09:25N 47°34' W 122°21'0 0.0
2014-Nov-18 08:31N 47°34' W 122°21'0 0.0
2014-Nov-18 08:10N 47°34' W 122°21'0 0.0
2014-Nov-18 07:31N 47°34' W 122°21'0 0.0
2014-Nov-18 07:25N 47°34' W 122°21'0 0.0
2014-Nov-18 06:55N 47°34' W 122°21'0 0.0
2014-Nov-18 06:31N 47°34' W 122°21'0 0.0
2014-Nov-18 05:31N 47°34' W 122°21'0 0.0
2014-Nov-18 05:25N 47°34' W 122°21'0 0.0
2014-Nov-18 04:31N 47°34' W 122°21'0 0.0
2014-Nov-18 04:19N 47°34' W 122°21'0 0.0
2014-Nov-18 03:31N 47°34' W 122°21'0 0.0
2014-Nov-18 03:19N 47°34' W 122°21'0 0.0
2014-Nov-18 02:31N 47°34' W 122°21'0 0.0
2014-Nov-18 02:19N 47°34' W 122°21'0 0.0
2014-Nov-18 01:31N 47°34' W 122°21'0 0.0
2014-Nov-18 01:04N 47°34' W 122°21'0 0.0
2014-Nov-18 00:31N 47°34' W 122°21'0 0.0
2014-Nov-17 23:31N 47°34' W 122°21'0 0.0
2014-Nov-17 23:28N 47°34' W 122°21'0 0.0
2014-Nov-17 22:25N 47°34' W 122°21'0 0.0
2014-Nov-17 22:07N 47°34' W 122°21'0 0.0
2014-Nov-17 21:31N 47°34' W 122°21'0 0.0
2014-Nov-17 21:22N 47°34' W 122°21'0 0.0
2014-Nov-17 20:31N 47°34' W 122°21'0 0.0
2014-Nov-17 20:22N 47°34' W 122°21'0 0.0
2014-Nov-17 19:19N 47°34' W 122°21'0 0.0
2014-Nov-17 19:16N 47°34' W 122°21'0 0.0
2014-Nov-17 18:31N 47°34' W 122°21'0 0.0
2014-Nov-17 18:31N 47°34' W 122°21'0 0.0
2014-Nov-17 17:28N 47°34' W 122°21'0 0.0
2014-Nov-17 16:55N 47°34' W 122°21'0 0.0
2014-Nov-17 16:31N 47°34' W 122°21'0 0.0
2014-Nov-17 16:10N 47°34' W 122°21'0 0.0
2014-Nov-17 15:28N 47°34' W 122°21'0 0.0
2014-Nov-17 15:04N 47°34' W 122°21'0 0.0
2014-Nov-17 14:28N 47°34' W 122°21'0 0.0
2014-Nov-17 14:19N 47°34' W 122°21'0 0.0
2014-Nov-17 13:25N 47°34' W 122°21'0 0.0
2014-Nov-17 12:31N 47°34' W 122°21'0 0.0
2014-Nov-17 11:24N 47°34' W 122°21'0 0.0
2014-Nov-17 10:30N 47°34' W 122°21'0 0.0
2014-Nov-17 09:30N 47°34' W 122°21'0 0.0
2014-Nov-17 08:33N 47°34' W 122°21'0 0.0
2014-Nov-17 08:24N 47°34' W 122°21'0 0.0
2014-Nov-17 07:33N 47°34' W 122°21'0 0.0
2014-Nov-17 07:24N 47°34' W 122°21'0 0.0
2014-Nov-17 06:33N 47°34' W 122°21'0 0.0
2014-Nov-17 05:33N 47°34' W 122°21'0 0.0
2014-Nov-17 05:24N 47°34' W 122°21'0 0.0
2014-Nov-17 04:33N 47°34' W 122°21'0 0.0
2014-Nov-17 04:03N 47°34' W 122°21'0 0.0
2014-Nov-17 03:33N 47°34' W 122°21'0 0.0
2014-Nov-17 03:18N 47°34' W 122°21'0 0.0
2014-Nov-17 02:18N 47°34' W 122°21'0 0.0
2014-Nov-17 01:39N 47°34' W 122°21'0 0.0
2014-Nov-17 01:33N 47°34' W 122°21'0 0.0
2014-Nov-17 01:24N 47°34' W 122°21'0 0.0
2014-Nov-17 00:33N 47°34' W 122°21'0 0.0
2014-Nov-17 00:24N 47°34' W 122°21'0 0.0
2014-Nov-16 23:33N 47°34' W 122°21'0 0.0
2014-Nov-16 23:18N 47°34' W 122°21'0 0.0
2014-Nov-16 22:33N 47°34' W 122°21'0 0.0
2014-Nov-16 22:18N 47°34' W 122°21'0 0.0
2014-Nov-16 20:21N 47°34' W 122°21'0 0.0
2014-Nov-16 20:21N 47°34' W 122°21'0 0.0
2014-Nov-16 19:33N 47°34' W 122°21'0 0.0
2014-Nov-16 19:30N 47°34' W 122°21'0 0.0
2014-Nov-16 18:33N 47°34' W 122°21'0 0.1
2014-Nov-16 18:30N 47°34' W 122°21'0 0.0
2014-Nov-16 17:33N 47°34' W 122°21'0 0.1
2014-Nov-16 17:30N 47°34' W 122°21'0 0.0
2014-Nov-16 16:30N 47°34' W 122°21'0 0.0
2014-Nov-16 16:29N 47°34' W 122°21'0 0.0
2014-Nov-16 15:33N 47°34' W 122°21'0 0.1
2014-Nov-16 15:29N 47°34' W 122°21'0 0.0
2014-Nov-16 14:33N 47°34' W 122°21'0 0.0
2014-Nov-16 14:29N 47°34' W 122°21'0 0.0
2014-Nov-16 13:33N 47°34' W 122°21'0 0.0
2014-Nov-16 13:23N 47°34' W 122°21'0 0.0
2014-Nov-16 12:33N 47°34' W 122°21'0 0.0
2014-Nov-16 12:23N 47°34' W 122°21'0 0.0
2014-Nov-16 11:33N 47°34' W 122°21'0 0.1
2014-Nov-16 10:53N 47°34' W 122°21'0 0.1
2014-Nov-16 10:33N 47°34' W 122°21'0 0.0
2014-Nov-16 10:32N 47°34' W 122°21'0 0.0
2014-Nov-16 09:33N 47°34' W 122°21'0 0.0
2014-Nov-16 09:32N 47°34' W 122°21'0 0.0
2014-Nov-16 08:33N 47°34' W 122°21'0 0.0
2014-Nov-16 08:32N 47°34' W 122°21'0 0.0
2014-Nov-16 07:24N 47°34' W 122°21'0 0.0
2014-Nov-16 06:30N 47°34' W 122°21'0 0.0
2014-Nov-16 06:11N 47°34' W 122°21'0 0.0
2014-Nov-16 05:24N 47°34' W 122°21'0 0.0
2014-Nov-16 05:17N 47°34' W 122°21'0 0.0
2014-Nov-16 04:33N 47°34' W 122°21'0 0.0
2014-Nov-16 04:32N 47°34' W 122°21'0 0.0
2014-Nov-16 03:33N 47°34' W 122°21'0 0.0
2014-Nov-16 02:33N 47°34' W 122°21'0 0.0
2014-Nov-16 02:11N 47°34' W 122°21'0 0.0
2014-Nov-16 01:26N 47°34' W 122°21'0 0.0
2014-Nov-16 00:29N 47°34' W 122°21'0 0.0
2014-Nov-15 23:32N 47°34' W 122°21'0 0.0
2014-Nov-15 23:23N 47°34' W 122°21'0 0.0
2014-Nov-15 22:20N 47°34' W 122°21'0 0.0
2014-Nov-15 21:32N 47°34' W 122°21'0 0.0
2014-Nov-15 20:32N 47°34' W 122°21'0 0.0
2014-Nov-15 20:20N 47°34' W 122°21'0 0.0
2014-Nov-15 19:32N 47°34' W 122°21'0 0.0
2014-Nov-15 18:32N 47°34' W 122°21'0 0.0
2014-Nov-15 17:26N 47°34' W 122°21'0 0.0
2014-Nov-15 16:32N 47°34' W 122°21'0 0.0
2014-Nov-15 15:20N 47°34' W 122°21'0 0.0
2014-Nov-15 14:32N 47°34' W 122°21'0 0.0
2014-Nov-15 13:32N 47°34' W 122°21'0 0.0
2014-Nov-15 13:32N 47°34' W 122°21'0 0.0
2014-Nov-15 12:32N 47°34' W 122°21'0 0.0
2014-Nov-15 12:32N 47°34' W 122°21'1 1.1
2014-Nov-15 11:33N 47°36' W 122°21'0 0.0
2014-Nov-15 11:26N 47°36' W 122°21'1 0.8
2014-Nov-15 10:33N 47°35' W 122°22'0 0.0
2014-Nov-15 06:59N 47°35' W 122°22'0 0.0
2014-Nov-15 06:33N 47°35' W 122°22'0 0.0
2014-Nov-15 05:33N 47°35' W 122°22'0 0.0
2014-Nov-15 05:29N 47°35' W 122°22'0 0.0
2014-Nov-15 04:33N 47°35' W 122°22'0 0.0
2014-Nov-15 03:59N 47°35' W 122°22'0 0.0
2014-Nov-15 03:33N 47°35' W 122°22'0 0.0
2014-Nov-15 03:29N 47°35' W 122°22'0 0.0
2014-Nov-15 02:33N 47°35' W 122°22'0 0.0
2014-Nov-15 02:29N 47°35' W 122°22'1 0.8
2014-Nov-15 01:33N 47°36' W 122°21'0 3.7
2014-Nov-15 01:30N 47°35' W 122°21'1 1.0
2014-Nov-15 00:33N 47°34' W 122°21'0 0.0
2014-Nov-15 00:19N 47°34' W 122°21'0 0.0
2014-Nov-14 23:31N 47°34' W 122°21'0 0.0
2014-Nov-14 23:19N 47°34' W 122°21'0 0.0
2014-Nov-14 22:31N 47°34' W 122°21'0 0.0
2014-Nov-14 22:19N 47°34' W 122°21'0 0.0
2014-Nov-14 21:31N 47°34' W 122°21'0 0.0
2014-Nov-14 21:19N 47°34' W 122°21'0 0.0
2014-Nov-14 20:31N 47°34' W 122°21'0 0.0
2014-Nov-14 20:19N 47°34' W 122°21'0 0.0
2014-Nov-14 19:31N 47°34' W 122°21'0 0.0
2014-Nov-14 19:19N 47°34' W 122°21'0 0.0
2014-Nov-14 18:31N 47°34' W 122°21'0 0.0
2014-Nov-14 18:18N 47°34' W 122°21'0 0.1
2014-Nov-14 17:31N 47°34' W 122°21'0 0.0
2014-Nov-14 17:18N 47°34' W 122°21'  
Track history (hours):
 
Tides and Currents Weather Stations Pressure Air Temp Water Temp Dewpoint Dewpoint Depression Visibility Wind Speed Wind Dir Waves Ship Positions

Ernest Campbell

Owner: Campbell Leasing Company LLC, Wrangell, AK. More information available from US FCC via Universal Licensing System and Coast Guard Vessel Documentation Center.

Last reported at 2014-Nov-24 17:07 UTC. Time now 2014-Nov-25 01:58 UTC.
Position N 48°52' W 122°45'.

Length 33 m; draft 4.6 m.

Type: Tow > 200 m length. MMSI: 366882320.

Date/timePositionNaut miles runAvg speedWind from/ knotsBaromVisibWave heightAir tempDewpointWater temp
2014-Nov-24 17:07N 48°52' W 122°45'1 0.5
2014-Nov-24 15:22N 48°51' W 122°47'0 0.1
2014-Nov-24 14:33N 48°51' W 122°47'3 3.2
2014-Nov-24 13:33N 48°48' W 122°46'6 6.5
2014-Nov-24 12:34N 48°42' W 122°43'6 6.5
2014-Nov-24 11:34N 48°37' W 122°37'6 5.6
2014-Nov-24 10:34N 48°31' W 122°35'1 0.6
2014-Nov-24 08:33N 48°31' W 122°37'0 0.0
2014-Nov-24 07:33N 48°31' W 122°37'0 0.0
2014-Nov-24 06:33N 48°31' W 122°37'0 0.0
2014-Nov-24 05:32N 48°31' W 122°37'0 0.0
2014-Nov-24 04:32N 48°31' W 122°37'0 0.0
2014-Nov-24 03:32N 48°31' W 122°37'0 0.0
2014-Nov-24 02:26N 48°31' W 122°37'0 0.0
2014-Nov-24 01:32N 48°31' W 122°37'0 0.0
2014-Nov-24 00:32N 48°31' W 122°37'0 0.0
2014-Nov-23 23:32N 48°31' W 122°37'0 0.0
2014-Nov-23 22:32N 48°31' W 122°37'0 0.0
2014-Nov-23 21:26N 48°31' W 122°37'0 0.0
2014-Nov-23 20:32N 48°31' W 122°37'0 0.0
2014-Nov-23 19:32N 48°31' W 122°37'0 0.0
2014-Nov-23 18:32N 48°31' W 122°37'0 0.0
2014-Nov-23 17:32N 48°31' W 122°37'0 0.0
2014-Nov-23 16:32N 48°31' W 122°37'0 0.0
2014-Nov-23 15:32N 48°31' W 122°37'0 0.0
2014-Nov-23 14:32N 48°31' W 122°37'0 0.0
2014-Nov-23 13:32N 48°31' W 122°37'0 0.0
2014-Nov-23 12:32N 48°31' W 122°37'0 0.0
2014-Nov-23 11:26N 48°31' W 122°37'0 0.0
2014-Nov-23 10:32N 48°31' W 122°37'0 0.0
2014-Nov-23 09:32N 48°31' W 122°37'0 0.0
2014-Nov-23 08:14N 48°31' W 122°37'0 0.0
2014-Nov-23 07:32N 48°31' W 122°37'0 0.0
2014-Nov-23 06:32N 48°31' W 122°37'0 0.0
2014-Nov-23 05:32N 48°31' W 122°37'0 0.0
2014-Nov-23 04:32N 48°31' W 122°37'0 0.0
2014-Nov-23 03:32N 48°31' W 122°37'0 0.0
2014-Nov-23 02:29N 48°31' W 122°37'0 0.0
2014-Nov-23 01:32N 48°31' W 122°37'0 0.0
2014-Nov-23 00:32N 48°31' W 122°37'0 0.0
2014-Nov-22 23:32N 48°31' W 122°37'0 0.0
2014-Nov-22 22:32N 48°31' W 122°37'0 0.0
2014-Nov-22 21:26N 48°31' W 122°37'0 0.0
2014-Nov-22 20:32N 48°31' W 122°37'0 0.0
2014-Nov-22 19:27N 48°31' W 122°37'0 0.0
2014-Nov-22 18:33N 48°31' W 122°37'0 0.0
2014-Nov-22 17:21N 48°31' W 122°37'0 0.0
2014-Nov-22 16:27N 48°31' W 122°37'0 0.0
2014-Nov-22 15:33N 48°31' W 122°37'0 0.0
2014-Nov-22 14:33N 48°31' W 122°37'0 0.0
2014-Nov-22 13:33N 48°31' W 122°37'0 0.0
2014-Nov-22 12:33N 48°31' W 122°37'0 0.0
2014-Nov-22 11:33N 48°31' W 122°37'0 0.0
2014-Nov-22 10:33N 48°31' W 122°37'0 0.0
2014-Nov-22 09:33N 48°31' W 122°37'0 0.0
2014-Nov-22 08:33N 48°31' W 122°37'0 0.0
2014-Nov-22 07:33N 48°31' W 122°37'0 0.0
2014-Nov-22 06:33N 48°31' W 122°37'0 0.0
2014-Nov-22 05:33N 48°31' W 122°37'0 0.0
2014-Nov-22 04:24N 48°31' W 122°37'0 0.0
2014-Nov-22 03:30N 48°31' W 122°37'0 0.2
2014-Nov-22 02:33N 48°31' W 122°37'1 1.3
2014-Nov-22 01:32N 48°31' W 122°35'0 0.0
2014-Nov-22 00:32N 48°31' W 122°35'0 0.0
2014-Nov-21 23:32N 48°31' W 122°35'0 0.0
2014-Nov-21 22:32N 48°31' W 122°35'0 0.0
2014-Nov-21 21:32N 48°31' W 122°35'0 0.0
2014-Nov-21 20:32N 48°31' W 122°35'0 0.0
2014-Nov-21 19:26N 48°31' W 122°35'0 0.0
2014-Nov-21 18:31N 48°31' W 122°35'0 0.0
2014-Nov-21 17:31N 48°31' W 122°35'0 0.0
2014-Nov-21 16:31N 48°31' W 122°35'0 0.0
2014-Nov-21 15:31N 48°31' W 122°35'0 0.0
2014-Nov-21 14:31N 48°31' W 122°35'0 0.4
2014-Nov-21 13:31N 48°31' W 122°36'1 1.5
2014-Nov-21 12:33N 48°31' W 122°38'5 5.1
2014-Nov-21 11:33N 48°29' W 122°44'6 5.3
2014-Nov-21 10:23N 48°22' W 122°44'4 4.1
2014-Nov-21 09:26N 48°19' W 122°46'4 3.7
2014-Nov-21 08:28N 48°15' W 122°47'10 3.5
2014-Nov-21 05:32N 48°07' W 122°39'6 7.5
2014-Nov-21 04:43N 48°01' W 122°36'2 7.6
2014-Nov-21 04:30N 47°59' W 122°35'2 7.4
2014-Nov-21 04:18N 47°58' W 122°34'6 8.4
2014-Nov-21 03:33N 47°53' W 122°28'0 0.0
2014-Nov-21 03:33N 47°53' W 122°28'8 8.2
2014-Nov-21 02:33N 47°45' W 122°26'0 6.9
2014-Nov-21 02:32N 47°45' W 122°26'8 7.8
2014-Nov-21 01:33N 47°37' W 122°25'0 3.4
2014-Nov-21 01:33N 47°37' W 122°25'4 3.4
2014-Nov-21 00:31N 47°36' W 122°21'0 0.0
2014-Nov-20 23:32N 47°36' W 122°21'0 0.0
2014-Nov-20 22:29N 47°36' W 122°21'0 0.0
2014-Nov-20 21:41N 47°36' W 122°21'0 0.0
2014-Nov-20 21:32N 47°36' W 122°21'0 0.0
2014-Nov-20 21:11N 47°36' W 122°21'0 0.0
2014-Nov-20 20:26N 47°36' W 122°21'0 0.0
2014-Nov-20 19:32N 47°36' W 122°21'0 0.0
2014-Nov-20 18:32N 47°36' W 122°21'0 0.2
2014-Nov-20 18:11N 47°36' W 122°21'0 0.1
2014-Nov-20 17:31N 47°36' W 122°21'0 0.4
2014-Nov-20 17:25N 47°36' W 122°21'0 0.1
2014-Nov-20 16:33N 47°35' W 122°21'0 0.2
2014-Nov-20 16:05N 47°35' W 122°21'1 1.6
2014-Nov-20 15:31N 47°34' W 122°21'0 0.0
2014-Nov-20 15:25N 47°34' W 122°21'0 0.0
2014-Nov-20 14:31N 47°34' W 122°21'0 0.0
2014-Nov-20 14:25N 47°34' W 122°21'0 0.0
2014-Nov-20 13:31N 47°34' W 122°21'0 0.1
2014-Nov-20 13:25N 47°34' W 122°21'0 0.0
2014-Nov-20 12:31N 47°34' W 122°21'0 0.0
2014-Nov-20 11:31N 47°34' W 122°21'0 0.0
2014-Nov-20 10:34N 47°34' W 122°21'0 0.1
2014-Nov-20 10:31N 47°34' W 122°21'0 0.0
2014-Nov-20 10:19N 47°34' W 122°21'0 0.0
2014-Nov-20 09:31N 47°34' W 122°21'0 0.0
2014-Nov-20 09:19N 47°34' W 122°21'0 0.0
2014-Nov-20 08:31N 47°34' W 122°21'0 0.0
2014-Nov-20 08:04N 47°34' W 122°21'0 0.0
2014-Nov-20 07:49N 47°34' W 122°21'0 0.0
2014-Nov-20 07:31N 47°34' W 122°21'0 0.0
2014-Nov-20 06:31N 47°34' W 122°21'0 0.0
2014-Nov-20 06:28N 47°34' W 122°21'1 0.7
2014-Nov-20 05:34N 47°35' W 122°21'0 3.2
2014-Nov-20 05:33N 47°35' W 122°21'1 0.6
2014-Nov-20 04:33N 47°34' W 122°21'0 0.3
2014-Nov-20 04:23N 47°34' W 122°21'0 0.0
2014-Nov-20 03:32N 47°34' W 122°21'0 0.0
2014-Nov-20 03:32N 47°34' W 122°21'0 0.0
2014-Nov-20 02:32N 47°34' W 122°21'0 0.0
2014-Nov-20 01:50N 47°34' W 122°21'0 0.0
2014-Nov-20 01:14N 47°34' W 122°21'0 0.0
2014-Nov-20 00:20N 47°34' W 122°21'0 0.0
2014-Nov-19 23:32N 47°34' W 122°21'0 0.5
2014-Nov-19 22:59N 47°35' W 122°21'0 0.6
2014-Nov-19 22:33N 47°34' W 122°21'0 0.1
2014-Nov-19 22:18N 47°34' W 122°21'1 1.0
2014-Nov-19 21:34N 47°35' W 122°21'0 9.8
2014-Nov-19 21:33N 47°35' W 122°21'0 0.3
2014-Nov-19 20:33N 47°35' W 122°21'0 0.0
2014-Nov-19 19:33N 47°35' W 122°21'0 0.1
2014-Nov-19 19:22N 47°35' W 122°21'1 1.3
2014-Nov-19 18:33N 47°34' W 122°21'0 0.0
2014-Nov-19 18:27N 47°34' W 122°21'0 0.0
2014-Nov-19 17:33N 47°34' W 122°21'1 1.3
2014-Nov-19 16:51N 47°35' W 122°21'1 3.1
2014-Nov-19 16:33N 47°34' W 122°21'0 0.0
2014-Nov-19 16:30N 47°34' W 122°21'0 0.0
2014-Nov-19 15:33N 47°34' W 122°21'0 0.0
2014-Nov-19 15:30N 47°34' W 122°21'0 0.0
2014-Nov-19 14:24N 47°34' W 122°21'0 0.0
2014-Nov-19 13:54N 47°34' W 122°21'0 0.0
2014-Nov-19 13:33N 47°34' W 122°21'0 0.0
2014-Nov-19 13:24N 47°34' W 122°21'0 0.0
2014-Nov-19 12:33N 47°34' W 122°21'0 0.0
2014-Nov-19 12:24N 47°34' W 122°21'0 0.0
2014-Nov-19 11:33N 47°34' W 122°21'0 0.0
2014-Nov-19 11:24N 47°34' W 122°21'0 0.0
2014-Nov-19 10:33N 47°34' W 122°21'0 0.0
2014-Nov-19 10:24N 47°34' W 122°21'0 0.0
2014-Nov-19 09:33N 47°34' W 122°21'0 0.0
2014-Nov-19 09:24N 47°34' W 122°21'0 0.0
2014-Nov-19 08:30N 47°34' W 122°21'0 0.0
2014-Nov-19 08:18N 47°34' W 122°21'0 0.0
2014-Nov-19 07:33N 47°34' W 122°21'0 0.0
2014-Nov-19 07:33N 47°34' W 122°21'0 0.0
2014-Nov-19 06:48N 47°34' W 122°21'0 0.0
2014-Nov-19 06:33N 47°34' W 122°21'0 0.0
2014-Nov-19 05:33N 47°34' W 122°21'0 0.0
2014-Nov-19 05:33N 47°34' W 122°21'0 0.1
2014-Nov-19 04:33N 47°34' W 122°21'0 0.0
2014-Nov-19 04:33N 47°34' W 122°21'1 0.8
2014-Nov-19 03:24N 47°35' W 122°21'0 0.0
2014-Nov-19 02:27N 47°35' W 122°21'0 0.0
2014-Nov-19 01:26N 47°35' W 122°21'0 0.0
2014-Nov-19 00:26N 47°35' W 122°21'0 0.0
2014-Nov-18 23:33N 47°35' W 122°21'0 0.0
2014-Nov-18 23:32N 47°35' W 122°21'0 0.0
2014-Nov-18 22:32N 47°35' W 122°21'0 0.0
2014-Nov-18 22:32N 47°35' W 122°21'0 0.0
2014-Nov-18 21:32N 47°35' W 122°21'0 0.0
2014-Nov-18 21:32N 47°35' W 122°21'1 0.9
2014-Nov-18 20:33N 47°35' W 122°21'0 1.4
2014-Nov-18 20:27N 47°34' W 122°21'0 0.1
2014-Nov-18 19:31N 47°34' W 122°21'0 0.0
2014-Nov-18 18:41N 47°34' W 122°21'0 0.0
2014-Nov-18 18:32N 47°34' W 122°21'0 0.0
2014-Nov-18 18:16N 47°34' W 122°21'0 0.0
2014-Nov-18 17:31N 47°34' W 122°21'0 0.0
2014-Nov-18 17:16N 47°34' W 122°21'0 0.0
2014-Nov-18 16:31N 47°34' W 122°21'0 0.0
2014-Nov-18 16:31N 47°34' W 122°21'0 0.0
2014-Nov-18 15:31N 47°34' W 122°21'0 0.0
2014-Nov-18 15:25N 47°34' W 122°21'0 0.0
2014-Nov-18 14:31N 47°34' W 122°21'0 0.0
2014-Nov-18 14:25N 47°34' W 122°21'0 0.0
2014-Nov-18 13:31N 47°34' W 122°21'0 0.0
2014-Nov-18 13:10N 47°34' W 122°21'0 0.0
2014-Nov-18 12:31N 47°34' W 122°21'0 0.1
2014-Nov-18 12:25N 47°34' W 122°21'0 0.0
2014-Nov-18 11:31N 47°34' W 122°21'0 0.0
2014-Nov-18 11:25N 47°34' W 122°21'0 0.0
2014-Nov-18 10:31N 47°34' W 122°21'0 0.1
2014-Nov-18 10:25N 47°34' W 122°21'0 0.0
2014-Nov-18 09:31N 47°34' W 122°21'0 0.1
2014-Nov-18 09:25N 47°34' W 122°21'0 0.0
2014-Nov-18 08:31N 47°34' W 122°21'0 0.0
2014-Nov-18 08:10N 47°34' W 122°21'0 0.0
2014-Nov-18 07:31N 47°34' W 122°21'0 0.0
2014-Nov-18 07:25N 47°34' W 122°21'0 0.0
2014-Nov-18 06:55N 47°34' W 122°21'0 0.0
2014-Nov-18 06:31N 47°34' W 122°21'0 0.0
2014-Nov-18 05:31N 47°34' W 122°21'0 0.0
2014-Nov-18 05:25N 47°34' W 122°21'0 0.0
2014-Nov-18 04:31N 47°34' W 122°21'0 0.0
2014-Nov-18 04:19N 47°34' W 122°21'0 0.0
2014-Nov-18 03:31N 47°34' W 122°21'0 0.0
2014-Nov-18 03:19N 47°34' W 122°21'0 0.0
2014-Nov-18 02:31N 47°34' W 122°21'0 0.0
2014-Nov-18 02:19N 47°34' W 122°21'0 0.0
2014-Nov-18 01:31N 47°34' W 122°21'0 0.0
2014-Nov-18 01:04N 47°34' W 122°21'0 0.0
2014-Nov-18 00:31N 47°34' W 122°21'0 0.0
2014-Nov-17 23:31N 47°34' W 122°21'0 0.0
2014-Nov-17 23:28N 47°34' W 122°21'0 0.0
2014-Nov-17 22:25N 47°34' W 122°21'0 0.0
2014-Nov-17 22:07N 47°34' W 122°21'0 0.0
2014-Nov-17 21:31N 47°34' W 122°21'0 0.0
2014-Nov-17 21:22N 47°34' W 122°21'0 0.0
2014-Nov-17 20:31N 47°34' W 122°21'0 0.0
2014-Nov-17 20:22N 47°34' W 122°21'0 0.0
2014-Nov-17 19:19N 47°34' W 122°21'0 0.0
2014-Nov-17 19:16N 47°34' W 122°21'0 0.0
2014-Nov-17 18:31N 47°34' W 122°21'0 0.0
2014-Nov-17 18:31N 47°34' W 122°21'0 0.0
2014-Nov-17 17:28N 47°34' W 122°21'0 0.0
2014-Nov-17 16:55N 47°34' W 122°21'0 0.0
2014-Nov-17 16:31N 47°34' W 122°21'0 0.0
2014-Nov-17 16:10N 47°34' W 122°21'0 0.0
2014-Nov-17 15:28N 47°34' W 122°21'0 0.0
2014-Nov-17 15:04N 47°34' W 122°21'0 0.0
2014-Nov-17 14:28N 47°34' W 122°21'0 0.0
2014-Nov-17 14:19N 47°34' W 122°21'0 0.0
2014-Nov-17 13:25N 47°34' W 122°21'0 0.0
2014-Nov-17 12:31N 47°34' W 122°21'0 0.0
2014-Nov-17 11:24N 47°34' W 122°21'0 0.0
2014-Nov-17 10:30N 47°34' W 122°21'0 0.0
2014-Nov-17 09:30N 47°34' W 122°21'0 0.0
2014-Nov-17 08:33N 47°34' W 122°21'0 0.0
2014-Nov-17 08:24N 47°34' W 122°21'0 0.0
2014-Nov-17 07:33N 47°34' W 122°21'0 0.0
2014-Nov-17 07:24N 47°34' W 122°21'0 0.0
2014-Nov-17 06:33N 47°34' W 122°21'0 0.0
2014-Nov-17 05:33N 47°34' W 122°21'0 0.0
2014-Nov-17 05:24N 47°34' W 122°21'0 0.0
2014-Nov-17 04:33N 47°34' W 122°21'0 0.0
2014-Nov-17 04:03N 47°34' W 122°21'0 0.0
2014-Nov-17 03:33N 47°34' W 122°21'0 0.0
2014-Nov-17 03:18N 47°34' W 122°21'0 0.0
2014-Nov-17 02:18N 47°34' W 122°21'0 0.0
2014-Nov-17 01:39N 47°34' W 122°21'0 0.0
2014-Nov-17 01:33N 47°34' W 122°21'0 0.0
2014-Nov-17 01:24N 47°34' W 122°21'0 0.0
2014-Nov-17 00:33N 47°34' W 122°21'0 0.0
2014-Nov-17 00:24N 47°34' W 122°21'0 0.0
2014-Nov-16 23:33N 47°34' W 122°21'0 0.0
2014-Nov-16 23:18N 47°34' W 122°21'0 0.0
2014-Nov-16 22:33N 47°34' W 122°21'0 0.0
2014-Nov-16 22:18N 47°34' W 122°21'0 0.0
2014-Nov-16 20:21N 47°34' W 122°21'0 0.0
2014-Nov-16 20:21N 47°34' W 122°21'0 0.0
2014-Nov-16 19:33N 47°34' W 122°21'0 0.0
2014-Nov-16 19:30N 47°34' W 122°21'0 0.0
2014-Nov-16 18:33N 47°34' W 122°21'0 0.1
2014-Nov-16 18:30N 47°34' W 122°21'0 0.0
2014-Nov-16 17:33N 47°34' W 122°21'0 0.1
2014-Nov-16 17:30N 47°34' W 122°21'0 0.0
2014-Nov-16 16:30N 47°34' W 122°21'0 0.0
2014-Nov-16 16:29N 47°34' W 122°21'0 0.0
2014-Nov-16 15:33N 47°34' W 122°21'0 0.1
2014-Nov-16 15:29N 47°34' W 122°21'0 0.0
2014-Nov-16 14:33N 47°34' W 122°21'0 0.0
2014-Nov-16 14:29N 47°34' W 122°21'0 0.0
2014-Nov-16 13:33N 47°34' W 122°21'0 0.0
2014-Nov-16 13:23N 47°34' W 122°21'0 0.0
2014-Nov-16 12:33N 47°34' W 122°21'0 0.0
2014-Nov-16 12:23N 47°34' W 122°21'0 0.0
2014-Nov-16 11:33N 47°34' W 122°21'0 0.1
2014-Nov-16 10:53N 47°34' W 122°21'0 0.1
2014-Nov-16 10:33N 47°34' W 122°21'0 0.0
2014-Nov-16 10:32N 47°34' W 122°21'0 0.0
2014-Nov-16 09:33N 47°34' W 122°21'0 0.0
2014-Nov-16 09:32N 47°34' W 122°21'0 0.0
2014-Nov-16 08:33N 47°34' W 122°21'0 0.0
2014-Nov-16 08:32N 47°34' W 122°21'0 0.0
2014-Nov-16 07:24N 47°34' W 122°21'0 0.0
2014-Nov-16 06:30N 47°34' W 122°21'0 0.0
2014-Nov-16 06:11N 47°34' W 122°21'0 0.0
2014-Nov-16 05:24N 47°34' W 122°21'0 0.0
2014-Nov-16 05:17N 47°34' W 122°21'0 0.0
2014-Nov-16 04:33N 47°34' W 122°21'0 0.0
2014-Nov-16 04:32N 47°34' W 122°21'0 0.0
2014-Nov-16 03:33N 47°34' W 122°21'0 0.0
2014-Nov-16 02:33N 47°34' W 122°21'0 0.0
2014-Nov-16 02:11N 47°34' W 122°21'0 0.0
2014-Nov-16 01:26N 47°34' W 122°21'0 0.0
2014-Nov-16 00:29N 47°34' W 122°21'0 0.0
2014-Nov-15 23:32N 47°34' W 122°21'0 0.0
2014-Nov-15 23:23N 47°34' W 122°21'0 0.0
2014-Nov-15 22:20N 47°34' W 122°21'0 0.0
2014-Nov-15 21:32N 47°34' W 122°21'0 0.0
2014-Nov-15 20:32N 47°34' W 122°21'0 0.0
2014-Nov-15 20:20N 47°34' W 122°21'0 0.0
2014-Nov-15 19:32N 47°34' W 122°21'0 0.0
2014-Nov-15 18:32N 47°34' W 122°21'0 0.0
2014-Nov-15 17:26N 47°34' W 122°21'0 0.0
2014-Nov-15 16:32N 47°34' W 122°21'0 0.0
2014-Nov-15 15:20N 47°34' W 122°21'0 0.0
2014-Nov-15 14:32N 47°34' W 122°21'0 0.0
2014-Nov-15 13:32N 47°34' W 122°21'0 0.0
2014-Nov-15 13:32N 47°34' W 122°21'0 0.0
2014-Nov-15 12:32N 47°34' W 122°21'0 0.0
2014-Nov-15 12:32N 47°34' W 122°21'1 1.1
2014-Nov-15 11:33N 47°36' W 122°21'0 0.0
2014-Nov-15 11:26N 47°36' W 122°21'1 0.8
2014-Nov-15 10:33N 47°35' W 122°22'0 0.0
2014-Nov-15 06:59N 47°35' W 122°22'0 0.0
2014-Nov-15 06:33N 47°35' W 122°22'0 0.0
2014-Nov-15 05:33N 47°35' W 122°22'0 0.0
2014-Nov-15 05:29N 47°35' W 122°22'0 0.0
2014-Nov-15 04:33N 47°35' W 122°22'0 0.0
2014-Nov-15 03:59N 47°35' W 122°22'0 0.0
2014-Nov-15 03:33N 47°35' W 122°22'0 0.0
2014-Nov-15 03:29N 47°35' W 122°22'0 0.0
2014-Nov-15 02:33N 47°35' W 122°22'0 0.0
2014-Nov-15 02:29N 47°35' W 122°22'1 0.8
2014-Nov-15 01:33N 47°36' W 122°21'0 3.7
2014-Nov-15 01:30N 47°35' W 122°21'1 1.0
2014-Nov-15 00:33N 47°34' W 122°21'0 0.0
2014-Nov-15 00:19N 47°34' W 122°21'0 0.0
2014-Nov-14 23:31N 47°34' W 122°21'0 0.0
2014-Nov-14 23:19N 47°34' W 122°21'0 0.0
2014-Nov-14 22:31N 47°34' W 122°21'0 0.0
2014-Nov-14 22:19N 47°34' W 122°21'0 0.0
2014-Nov-14 21:31N 47°34' W 122°21'0 0.0
2014-Nov-14 21:19N 47°34' W 122°21'0 0.0
2014-Nov-14 20:31N 47°34' W 122°21'0 0.0
2014-Nov-14 20:19N 47°34' W 122°21'0 0.0
2014-Nov-14 19:31N 47°34' W 122°21'0 0.0
2014-Nov-14 19:19N 47°34' W 122°21'0 0.0
2014-Nov-14 18:31N 47°34' W 122°21'0 0.0
2014-Nov-14 18:18N 47°34' W 122°21'0 0.1
2014-Nov-14 17:31N 47°34' W 122°21'0 0.0
2014-Nov-14 17:18N 47°34' W 122°21'  

Dump ship's entire track history